Time;durP1;ratioP1;P1;durP2;ratioP2;P2;SDS_P1;SDS_P2;PMS_P1;PMS_P2;Temp;Humidity;BMP_temperature;BMP_pressure;BME280_temperature;BME280_humidity;BME280_pressure;Samples;Min_cycle;Max_cycle;Signal;HPM_P1;HPM_P2
2023/12/27 04:01:23;;;;;;;20.00;6.63;;;2.00;99.90;;;;;;5574167;23;20142;-74
2023/12/27 04:03:48;;;;;;;14.93;6.63;;;2.00;99.90;;;;;;4957706;28;20070;-73
2023/12/27 04:06:18;;;;;;;16.92;6.43;;;2.00;99.90;;;;;;4940143;29;20075;-73
2023/12/27 04:08:45;;;;;;;16.75;6.85;;;2.10;99.90;;;;;;4957654;28;20395;-73
2023/12/27 04:11:10;;;;;;;19.02;8.18;;;2.10;99.90;;;;;;4957628;28;20044;-74
2023/12/27 04:13:36;;;;;;;23.27;7.72;;;2.10;99.90;;;;;;4957495;29;20490;-74
2023/12/27 04:16:01;;;;;;;23.48;7.55;;;2.20;99.90;;;;;;4955556;28;20050;-75
2023/12/27 04:18:27;;;;;;;25.42;7.60;;;2.20;99.90;;;;;;4955765;29;20101;-74
2023/12/27 04:20:53;;;;;;;18.48;7.78;;;2.20;99.90;;;;;;4957709;28;20039;-74
2023/12/27 04:23:18;;;;;;;22.02;7.97;;;2.30;99.90;;;;;;4957778;29;20039;-73
2023/12/27 04:25:44;;;;;;;21.70;8.40;;;2.30;99.90;;;;;;4957446;29;20079;-74
2023/12/27 04:28:10;;;;;;;19.25;7.18;;;2.30;99.90;;;;;;4940274;29;20123;-74
2023/12/27 04:30:35;;;;;;;22.40;8.10;;;2.30;99.90;;;;;;4956105;28;20043;-73
2023/12/27 04:33:01;;;;;;;19.33;7.10;;;2.30;99.90;;;;;;4956098;29;20049;-73
2023/12/27 04:35:26;;;;;;;16.35;7.65;;;2.40;99.90;;;;;;4957577;29;20122;-75
2023/12/27 04:37:52;;;;;;;21.00;7.82;;;2.40;99.90;;;;;;4957331;29;20076;-73
2023/12/27 04:40:18;;;;;;;17.67;7.68;;;2.40;99.90;;;;;;4957351;28;20039;-74
2023/12/27 04:42:43;;;;;;;19.67;8.13;;;2.40;99.90;;;;;;4957443;28;20039;-74
2023/12/27 04:45:09;;;;;;;19.15;6.80;;;2.40;99.90;;;;;;4957321;29;20114;-73
2023/12/27 04:47:35;;;;;;;22.25;7.20;;;2.40;99.90;;;;;;4939886;29;20106;-74
2023/12/27 04:50:00;;;;;;;16.42;7.00;;;2.40;99.90;;;;;;4957078;29;20074;-75
2023/12/27 04:52:26;;;;;;;15.88;6.50;;;2.40;99.90;;;;;;4956986;28;20031;-74
2023/12/27 04:54:52;;;;;;;17.05;6.10;;;2.40;99.90;;;;;;4956942;29;20487;-73
2023/12/27 04:57:17;;;;;;;22.70;7.57;;;2.40;99.90;;;;;;4955691;29;20049;-74
2023/12/27 04:59:43;;;;;;;23.60;7.35;;;2.40;99.90;;;;;;4939658;29;20130;-75
2023/12/27 05:02:08;;;;;;;22.13;7.40;;;2.40;99.90;;;;;;4956905;28;20039;-74
2023/12/27 05:04:34;;;;;;;20.48;7.30;;;2.40;99.90;;;;;;4955502;29;20047;-74
2023/12/27 05:07:00;;;;;;;18.08;7.15;;;2.40;99.90;;;;;;4955766;29;20435;-74
2023/12/27 05:09:25;;;;;;;22.02;7.68;;;2.40;99.90;;;;;;4955414;29;20126;-75
2023/12/27 05:11:51;;;;;;;23.73;8.13;;;2.40;99.90;;;;;;4956632;28;20126;-74
2023/12/27 05:14:16;;;;;;;18.40;7.63;;;2.40;99.90;;;;;;4956850;28;20102;-74
2023/12/27 05:16:45;;;;;;;20.20;8.10;;;2.40;99.90;;;;;;4956834;29;20039;-75
2023/12/27 05:19:11;;;;;;;24.63;8.73;;;2.40;99.90;;;;;;4956714;28;20067;-76
2023/12/27 05:21:37;;;;;;;21.02;7.85;;;2.40;99.90;;;;;;4956611;28;20067;-75
2023/12/27 05:24:02;;;;;;;21.80;7.50;;;2.40;99.90;;;;;;4955161;29;20152;-76
2023/12/27 05:26:28;;;;;;;19.60;8.43;;;2.40;99.90;;;;;;4954958;29;20050;-75
2023/12/27 05:28:54;;;;;;;22.55;7.68;;;2.50;99.90;;;;;;4955975;28;20085;-75
2023/12/27 05:31:19;;;;;;;22.58;7.88;;;2.50;99.90;;;;;;4955054;28;20122;-75
2023/12/27 05:33:45;;;;;;;22.08;7.75;;;2.50;99.90;;;;;;4955072;29;20496;-74
2023/12/27 05:36:11;;;;;;;21.88;6.78;;;2.50;99.90;;;;;;4956161;29;20047;-74
2023/12/27 05:38:36;;;;;;;31.48;8.57;;;2.50;99.90;;;;;;4955316;29;20235;-73
2023/12/27 05:41:03;;;;;;;18.30;7.07;;;2.60;99.90;;;;;;4956313;28;20391;-75
2023/12/27 05:43:29;;;;;;;17.63;6.90;;;2.60;99.90;;;;;;4956368;28;20039;-74
2023/12/27 05:45:54;;;;;;;18.70;6.55;;;2.60;99.90;;;;;;4956234;29;20051;-75
2023/12/27 05:48:20;;;;;;;24.40;6.85;;;2.70;99.90;;;;;;4955055;29;20039;-75
2023/12/27 05:50:46;;;;;;;22.00;6.80;;;2.60;99.90;;;;;;4954887;28;20474;-75
2023/12/27 05:53:11;;;;;;;19.83;6.40;;;2.70;99.90;;;;;;4955836;28;20586;-73
2023/12/27 05:55:37;;;;;;;18.10;6.57;;;2.70;99.90;;;;;;4954693;29;20095;-73
2023/12/27 05:58:03;;;;;;;21.75;6.70;;;2.70;99.90;;;;;;4956139;28;20372;-74
2023/12/27 06:00:29;;;;;;;21.17;7.28;;;2.70;99.90;;;;;;4954438;28;20089;-73
2023/12/27 06:02:54;;;;;;;15.05;6.32;;;2.80;99.90;;;;;;4954780;29;20074;-74
2023/12/27 06:05:22;;;;;;;17.65;5.97;;;2.80;99.90;;;;;;4954503;29;20051;-73
2023/12/27 06:07:48;;;;;;;20.73;6.53;;;2.80;99.90;;;;;;4954837;29;20048;-74
2023/12/27 06:10:14;;;;;;;20.33;6.13;;;2.80;99.90;;;;;;4955447;28;20114;-74
2023/12/27 06:12:40;;;;;;;17.02;6.00;;;2.80;99.90;;;;;;4938478;29;20501;-75
2023/12/27 06:15:08;;;;;;;17.15;6.18;;;2.80;99.90;;;;;;4955811;29;20035;-74
2023/12/27 06:17:34;;;;;;;23.52;6.50;;;2.80;99.90;;;;;;4955857;28;20113;-75
2023/12/27 06:19:59;;;;;;;17.65;6.85;;;2.80;99.90;;;;;;4954287;29;20047;-75
2023/12/27 06:22:25;;;;;;;24.08;6.22;;;2.90;99.90;;;;;;4955695;28;20035;-74
2023/12/27 06:24:51;;;;;;;20.98;7.18;;;2.90;99.90;;;;;;4954081;29;20051;-74
2023/12/27 06:27:16;;;;;;;17.33;7.32;;;2.90;99.90;;;;;;4954239;29;20043;-73
2023/12/27 06:29:42;;;;;;;18.83;7.15;;;2.90;99.90;;;;;;4954291;29;20094;-75
2023/12/27 06:32:07;;;;;;;21.38;7.20;;;2.90;99.90;;;;;;4954110;28;20521;-75
2023/12/27 06:34:33;;;;;;;22.02;7.38;;;2.90;99.90;;;;;;4954082;29;20043;-74
2023/12/27 06:36:59;;;;;;;16.88;7.43;;;3.00;99.90;;;;;;4955326;29;20043;-75
2023/12/27 06:39:25;;;;;;;23.27;7.05;;;3.00;99.90;;;;;;4953576;29;20039;-75
2023/12/27 06:41:50;;;;;;;22.80;7.18;;;3.00;99.90;;;;;;4955169;28;20525;-74
2023/12/27 06:44:16;;;;;;;18.27;7.00;;;3.00;99.90;;;;;;4954056;29;20051;-74
2023/12/27 06:46:42;;;;;;;17.65;7.35;;;3.00;99.90;;;;;;4955437;29;20042;-74
2023/12/27 06:49:07;;;;;;;19.65;7.32;;;3.10;99.90;;;;;;4953907;29;20054;-74
2023/12/27 06:51:33;;;;;;;23.52;7.97;;;3.10;99.90;;;;;;4955103;28;20031;-75
2023/12/27 06:53:59;;;;;;;26.83;8.40;;;3.10;99.90;;;;;;4953949;29;20491;-73
2023/12/27 06:56:24;;;;;;;24.17;7.85;;;3.10;99.90;;;;;;4955387;28;20062;-75
2023/12/27 06:58:50;;;;;;;21.33;8.35;;;3.10;99.90;;;;;;4955162;28;20503;-74
2023/12/27 07:01:16;;;;;;;22.77;7.85;;;3.10;99.90;;;;;;4954000;28;20050;-75
2023/12/27 07:03:41;;;;;;;15.82;8.55;;;3.10;99.90;;;;;;4955641;28;20044;-75
2023/12/27 07:06:07;;;;;;;18.27;8.80;;;3.20;99.90;;;;;;4953709;29;20047;-75
2023/12/27 07:08:33;;;;;;;20.70;7.65;;;3.20;99.90;;;;;;4955082;28;20036;-75
2023/12/27 07:10:59;;;;;;;19.25;7.93;;;3.30;99.90;;;;;;4955192;28;20043;-74
2023/12/27 07:13:25;;;;;;;24.25;8.25;;;3.30;99.90;;;;;;4953781;29;20442;-75
2023/12/27 07:15:50;;;;;;;21.13;8.10;;;3.30;99.90;;;;;;4953858;29;20046;-75
2023/12/27 07:18:16;;;;;;;20.35;7.75;;;3.30;99.90;;;;;;4955232;28;20120;-75
2023/12/27 07:20:41;;;;;;;21.92;9.45;;;3.40;99.90;;;;;;4955158;28;20391;-74
2023/12/27 07:23:07;;;;;;;21.02;8.45;;;3.40;99.90;;;;;;4954895;29;20201;-75
2023/12/27 07:25:33;;;;;;;18.17;7.97;;;3.40;99.90;;;;;;4955370;29;20046;-75
2023/12/27 07:27:58;;;;;;;25.48;8.63;;;3.50;99.90;;;;;;4955890;28;20039;-74
2023/12/27 07:30:24;;;;;;;24.60;8.75;;;3.50;99.90;;;;;;4955075;28;20054;-76
2023/12/27 07:32:50;;;;;;;20.02;8.20;;;3.50;99.90;;;;;;4953599;29;20122;-73
2023/12/27 07:35:15;;;;;;;24.30;8.85;;;3.60;99.90;;;;;;4954869;29;20405;-74
2023/12/27 07:37:42;;;;;;;22.65;8.35;;;3.60;99.90;;;;;;4953826;29;20049;-74
2023/12/27 07:40:09;;;;;;;22.40;8.75;;;3.60;99.90;;;;;;4953832;29;20122;-74
2023/12/27 07:42:35;;;;;;;23.90;9.75;;;3.60;99.90;;;;;;4937582;29;20475;-73
2023/12/27 07:45:00;;;;;;;23.05;8.30;;;3.70;99.90;;;;;;4953374;29;20058;-74
2023/12/27 07:47:26;;;;;;;25.88;9.00;;;3.70;99.90;;;;;;4954775;29;20122;-74
2023/12/27 07:49:53;;;;;;;31.63;8.50;;;3.70;99.90;;;;;;4955093;28;20043;-74
2023/12/27 07:52:19;;;;;;;20.65;7.75;;;3.70;99.90;;;;;;4957674;28;20387;-74
2023/12/27 07:54:45;;;;;;;21.10;7.80;;;3.80;99.90;;;;;;4958163;29;20093;-73
2023/12/27 07:57:10;;;;;;;21.98;8.07;;;3.90;99.90;;;;;;4957104;29;20039;-75
2023/12/27 07:59:36;;;;;;;18.25;7.15;;;3.90;99.90;;;;;;4959088;29;20039;-75
2023/12/27 08:02:01;;;;;;;21.45;7.25;;;3.90;99.90;;;;;;4957957;28;20126;-74
2023/12/27 08:04:27;;;;;;;19.08;7.13;;;3.90;99.90;;;;;;4956682;29;20043;-73
2023/12/27 08:06:53;;;;;;;17.83;7.97;;;4.00;99.90;;;;;;4956672;29;20046;-75
2023/12/27 08:09:18;;;;;;;18.73;7.25;;;4.00;99.90;;;;;;4956863;29;20122;-73
2023/12/27 08:11:44;;;;;;;17.95;7.80;;;4.00;99.90;;;;;;4957555;28;20048;-72
2023/12/27 08:14:10;;;;;;;19.23;7.50;;;4.00;99.90;;;;;;4956796;29;20035;-73
2023/12/27 08:16:36;;;;;;;21.88;7.47;;;4.10;99.90;;;;;;4956455;29;20442;-73
2023/12/27 08:19:01;;;;;;;21.13;7.07;;;4.00;99.90;;;;;;4957702;29;20043;-75
2023/12/27 08:21:27;;;;;;;20.55;7.28;;;4.10;99.90;;;;;;4956096;28;20043;-74
2023/12/27 08:23:53;;;;;;;20.17;7.38;;;4.10;99.90;;;;;;4956148;29;20051;-75
2023/12/27 08:26:20;;;;;;;20.02;7.00;;;4.10;99.90;;;;;;4956011;29;20051;-75
2023/12/27 08:28:46;;;;;;;26.60;7.53;;;4.10;99.90;;;;;;4957725;28;20074;-75
2023/12/27 08:31:13;;;;;;;19.70;7.30;;;4.20;99.90;;;;;;4956205;28;20082;-75
2023/12/27 08:33:39;;;;;;;18.65;7.00;;;4.20;99.90;;;;;;4957290;29;20566;-75
2023/12/27 08:36:05;;;;;;;21.67;8.25;;;4.20;99.90;;;;;;4956107;29;20101;-74
2023/12/27 08:38:32;;;;;;;26.90;7.18;;;4.20;99.90;;;;;;4956020;29;20075;-74
2023/12/27 08:40:58;;;;;;;19.35;7.13;;;4.20;99.90;;;;;;4955955;28;20130;-75
2023/12/27 08:43:29;;;;;;;20.63;6.93;;;4.30;99.90;;;;;;4957615;28;20471;-75
2023/12/27 08:45:55;;;;;;;19.45;7.50;;;4.30;99.90;;;;;;4957048;28;20487;-74
2023/12/27 08:48:20;;;;;;;21.25;8.00;;;4.30;99.90;;;;;;4957349;28;20046;-75
2023/12/27 08:50:48;;;;;;;20.27;7.70;;;4.40;99.90;;;;;;4957235;28;20035;-74
2023/12/27 08:53:14;;;;;;;16.88;7.30;;;4.40;99.90;;;;;;4956865;28;20043;-76
2023/12/27 08:55:40;;;;;;;23.92;8.07;;;4.40;99.90;;;;;;4957194;28;20047;-73
2023/12/27 08:58:06;;;;;;;26.70;8.35;;;4.40;99.90;;;;;;4955645;29;20047;-76
2023/12/27 09:00:31;;;;;;;20.52;7.65;;;4.50;99.90;;;;;;4939441;28;20152;-75
2023/12/27 09:02:58;;;;;;;20.48;8.27;;;4.50;99.90;;;;;;4956381;28;20122;-73
2023/12/27 09:05:23;;;;;;;21.55;8.82;;;4.50;99.90;;;;;;4956945;28;20039;-74
2023/12/27 09:07:49;;;;;;;21.15;8.30;;;4.50;99.90;;;;;;4955735;29;20435;-75
2023/12/27 09:10:15;;;;;;;20.75;8.45;;;4.60;99.90;;;;;;4955520;28;20043;-74
2023/12/27 09:12:40;;;;;;;27.80;9.43;;;4.60;99.90;;;;;;4956812;29;20043;-74
2023/12/27 09:15:07;;;;;;;22.92;8.68;;;4.60;99.90;;;;;;4956812;28;20039;-74
2023/12/27 09:17:33;;;;;;;22.85;10.00;;;4.70;99.90;;;;;;4955621;29;20388;-75
2023/12/27 09:19:58;;;;;;;27.88;9.63;;;4.70;99.90;;;;;;4956708;28;20047;-75
2023/12/27 09:22:24;;;;;;;24.27;9.95;;;4.70;99.90;;;;;;4956299;28;20036;-74
2023/12/27 09:24:50;;;;;;;23.58;9.98;;;4.80;99.90;;;;;;4956790;29;20043;-75
2023/12/27 09:27:17;;;;;;;28.25;9.60;;;4.80;99.90;;;;;;4955051;29;20114;-76
2023/12/27 09:29:44;;;;;;;24.65;11.10;;;4.80;99.90;;;;;;4955298;29;20082;-74
2023/12/27 09:32:10;;;;;;;25.00;9.38;;;4.80;99.90;;;;;;4956363;28;20110;-74
2023/12/27 09:34:36;;;;;;;21.67;9.13;;;4.90;99.90;;;;;;4956329;29;20399;-76
2023/12/27 09:37:03;;;;;;;19.20;9.90;;;4.90;99.90;;;;;;4956137;29;20057;-74
2023/12/27 09:39:32;;;;;;;21.23;8.88;;;5.00;99.90;;;;;;4956159;28;20101;-76
2023/12/27 09:41:58;;;;;;;26.63;9.23;;;5.00;99.90;;;;;;4954607;28;20047;-75
2023/12/27 09:44:24;;;;;;;24.88;9.77;;;5.00;99.90;;;;;;4956209;28;20035;-75
2023/12/27 09:46:50;;;;;;;27.05;10.02;;;5.00;99.90;;;;;;4954571;29;20491;-75
2023/12/27 09:49:20;;;;;;;24.90;8.93;;;5.00;99.90;;;;;;4955555;28;20451;-75
2023/12/27 09:51:47;;;;;;;26.02;9.93;;;5.10;99.90;;;;;;4954683;28;20130;-74
2023/12/27 09:54:16;;;;;;;22.52;8.70;;;5.10;99.90;;;;;;4954592;29;20399;-75
2023/12/27 09:56:42;;;;;;;25.88;9.98;;;5.10;99.90;;;;;;4954149;28;20098;-76
2023/12/27 09:59:15;;;;;;;27.70;9.60;;;5.10;99.90;;;;;;4955850;29;20056;-77
2023/12/27 10:01:44;;;;;;;25.55;9.88;;;5.20;99.90;;;;;;4954494;29;20043;-76
2023/12/27 10:04:46;;;;;;;28.02;11.25;;;5.20;99.90;;;;;;4955706;29;20031;-75
2023/12/27 10:07:12;;;;;;;26.13;10.20;;;5.20;99.90;;;;;;4945029;29;20058;-77
2023/12/27 10:09:38;;;;;;;25.45;10.25;;;5.20;99.90;;;;;;4955534;28;20131;-75
2023/12/27 10:12:07;;;;;;;25.05;10.32;;;5.20;99.90;;;;;;4954617;29;20082;-77
2023/12/27 10:14:35;;;;;;;26.92;10.45;;;5.20;99.90;;;;;;4954537;28;20058;-75
2023/12/27 10:17:03;;;;;;;31.08;11.27;;;5.20;99.90;;;;;;4955898;28;20126;-77
2023/12/27 10:19:44;;;;;;;28.20;11.05;;;5.20;99.90;;;;;;4954314;29;20055;-77
2023/12/27 10:22:12;;;;;;;22.88;10.13;;;5.20;99.90;;;;;;4954929;29;20361;-75
2023/12/27 10:24:39;;;;;;;24.02;11.35;;;5.20;99.90;;;;;;4955446;28;20579;-74
2023/12/27 10:27:09;;;;;;;32.45;11.32;;;5.20;99.90;;;;;;4954590;29;20039;-74
2023/12/27 10:29:35;;;;;;;29.10;10.63;;;5.30;99.90;;;;;;4955664;29;20043;-74
2023/12/27 10:32:02;;;;;;;27.40;11.02;;;5.20;99.90;;;;;;4955707;28;20438;-76
2023/12/27 10:34:28;;;;;;;26.42;11.52;;;5.20;99.90;;;;;;4954282;29;20411;-77
2023/12/27 10:36:55;;;;;;;33.92;11.30;;;5.30;99.90;;;;;;4953979;29;20039;-78
2023/12/27 10:39:21;;;;;;;33.55;11.90;;;5.20;99.90;;;;;;4954317;29;20431;-77
2023/12/27 10:41:47;;;;;;;29.92;12.40;;;5.20;99.90;;;;;;4954197;29;20055;-75
2023/12/27 10:44:17;;;;;;;28.95;12.38;;;5.20;99.90;;;;;;4954142;29;20402;-75
2023/12/27 10:46:43;;;;;;;28.85;11.90;;;5.20;99.90;;;;;;4954117;29;20062;-77
2023/12/27 10:49:10;;;;;;;39.88;13.23;;;5.30;99.90;;;;;;4954150;29;20047;-78
2023/12/27 10:51:39;;;;;;;30.55;12.82;;;5.20;99.90;;;;;;4955705;28;20035;-75
2023/12/27 10:54:05;;;;;;;31.10;13.25;;;5.30;99.90;;;;;;4954491;29;20050;-78
2023/12/27 10:56:38;;;;;;;35.83;14.02;;;5.20;99.90;;;;;;4955670;28;20039;-74
2023/12/27 10:59:05;;;;;;;27.85;13.52;;;5.30;99.90;;;;;;4938265;29;20510;-74
2023/12/27 11:01:38;;;;;;;37.20;14.10;;;5.30;99.90;;;;;;4954183;29;20376;-76
2023/12/27 11:04:07;;;;;;;32.97;13.77;;;5.30;99.90;;;;;;4954299;29;20039;-78
2023/12/27 11:06:38;;;;;;;37.42;15.18;;;5.30;99.90;;;;;;4938803;29;20051;-76
2023/12/27 11:09:07;;;;;;;37.17;14.80;;;5.30;99.90;;;;;;4954057;29;20055;-78
2023/12/27 11:11:38;;;;;;;35.95;14.73;;;5.30;99.90;;;;;;4953947;29;20047;-78
2023/12/27 11:14:05;;;;;;;35.63;14.45;;;5.40;99.90;;;;;;4954134;29;20070;-79
2023/12/27 11:16:35;;;;;;;33.53;16.75;;;5.30;99.90;;;;;;4953825;29;20051;-79
2023/12/27 11:19:08;;;;;;;35.78;15.02;;;5.40;99.90;;;;;;4954078;29;20043;-79
2023/12/27 11:21:37;;;;;;;36.25;15.43;;;5.40;99.90;;;;;;4938124;29;20043;-77
2023/12/27 11:24:04;;;;;;;34.58;15.48;;;5.40;99.90;;;;;;4937963;29;20039;-79
2023/12/27 11:26:34;;;;;;;37.15;15.20;;;5.40;99.90;;;;;;4955319;28;20042;-78
2023/12/27 11:29:01;;;;;;;34.55;15.00;;;5.40;99.90;;;;;;4957455;29;20546;-77
2023/12/27 11:31:27;;;;;;;33.97;14.65;;;5.50;99.90;;;;;;4958932;28;20075;-76
2023/12/27 11:33:53;;;;;;;30.65;14.90;;;5.50;99.90;;;;;;4957710;29;20079;-76
2023/12/27 11:36:20;;;;;;;26.65;14.13;;;5.50;99.90;;;;;;4957468;29;20458;-77
2023/12/27 11:38:46;;;;;;;32.38;14.25;;;5.60;99.90;;;;;;4958747;28;20083;-78
2023/12/27 11:41:12;;;;;;;29.02;14.05;;;5.60;99.90;;;;;;4958477;28;20094;-78
2023/12/27 11:44:06;;;;;;;34.70;15.52;;;5.60;99.90;;;;;;4954593;28;20035;-76
2023/12/27 11:46:32;;;;;;;33.65;15.73;;;5.60;99.90;;;;;;4939901;29;20047;-75
2023/12/27 11:48:59;;;;;;;31.15;14.98;;;5.60;99.90;;;;;;4939240;29;20102;-77
2023/12/27 11:51:29;;;;;;;29.30;13.95;;;5.70;99.90;;;;;;4937675;29;20079;-76
2023/12/27 11:53:55;;;;;;;29.77;15.38;;;5.70;99.90;;;;;;4937719;29;20138;-76
2023/12/27 11:56:21;;;;;;;28.20;14.27;;;5.70;99.90;;;;;;4921829;29;20048;-76
2023/12/27 11:58:48;;;;;;;30.20;15.50;;;5.70;99.90;;;;;;4939292;29;20063;-77
2023/12/27 12:01:30;;;;;;;30.65;14.32;;;5.80;99.90;;;;;;4936809;29;20526;-76
2023/12/27 12:03:59;;;;;;;35.35;16.08;;;5.80;99.90;;;;;;4936684;29;20134;-77
2023/12/27 12:06:31;;;;;;;33.70;16.65;;;5.80;99.90;;;;;;4937273;29;20043;-76
2023/12/27 12:08:58;;;;;;;30.50;15.95;;;5.90;99.90;;;;;;4937737;29;20213;-76
2023/12/27 12:11:26;;;;;;;34.70;16.98;;;5.90;99.90;;;;;;4937554;29;20070;-76
2023/12/27 12:13:52;;;;;;;36.90;16.45;;;5.90;99.90;;;;;;4937308;29;20054;-75
2023/12/27 12:16:18;;;;;;;38.40;16.83;;;5.90;99.90;;;;;;4937275;29;20111;-76
2023/12/27 12:18:44;;;;;;;35.17;16.92;;;6.00;99.90;;;;;;4938752;29;20044;-78
2023/12/27 12:21:10;;;;;;;38.20;17.30;;;6.00;99.90;;;;;;4937100;29;20135;-77
2023/12/27 12:23:36;;;;;;;38.38;17.73;;;6.00;99.90;;;;;;4937108;29;20130;-77
2023/12/27 12:26:02;;;;;;;36.13;17.67;;;6.00;99.90;;;;;;4938493;29;20036;-77
2023/12/27 12:28:28;;;;;;;36.97;17.75;;;6.10;99.90;;;;;;4938492;29;20127;-77
2023/12/27 12:30:58;;;;;;;38.05;17.58;;;6.10;99.90;;;;;;4938435;28;20051;-80
2023/12/27 12:33:25;;;;;;;43.78;18.02;;;6.10;99.90;;;;;;4936849;29;20043;-78
2023/12/27 12:35:51;;;;;;;39.17;18.27;;;6.20;99.90;;;;;;4938401;29;20040;-80
2023/12/27 12:38:18;;;;;;;44.13;18.65;;;6.20;99.90;;;;;;4936226;29;20047;-76
2023/12/27 12:40:50;;;;;;;46.70;18.75;;;6.30;99.90;;;;;;4937425;29;20058;-75
2023/12/27 12:43:16;;;;;;;44.40;19.02;;;6.30;99.90;;;;;;4938196;29;20496;-74
2023/12/27 12:45:46;;;;;;;45.53;20.25;;;6.30;99.90;;;;;;4937837;29;20040;-75
2023/12/27 12:48:12;;;;;;;42.28;18.55;;;6.30;99.90;;;;;;4937620;29;20058;-74
2023/12/27 12:50:37;;;;;;;39.70;19.02;;;6.30;99.90;;;;;;4938620;29;20385;-76
2023/12/27 12:53:17;;;;;;;40.55;20.52;;;6.40;99.90;;;;;;4937792;29;20043;-76
2023/12/27 12:55:47;;;;;;;45.65;19.25;;;6.50;99.90;;;;;;4937804;29;20043;-75
2023/12/27 12:58:13;;;;;;;44.25;19.65;;;6.50;99.90;;;;;;4937689;29;20040;-75
2023/12/27 13:00:39;;;;;;;44.80;20.55;;;6.50;99.90;;;;;;4936406;29;20047;-76
2023/12/27 13:03:07;;;;;;;50.00;20.30;;;6.60;99.90;;;;;;4937893;29;20483;-75
2023/12/27 13:05:32;;;;;;;34.65;17.15;;;6.60;99.90;;;;;;4936227;29;20127;-77
2023/12/27 13:08:04;;;;;;;41.30;19.05;;;6.70;99.90;;;;;;4936510;29;20131;-75
2023/12/27 13:10:30;;;;;;;45.08;21.15;;;6.70;99.90;;;;;;4937745;29;20044;-75
2023/12/27 13:12:56;;;;;;;43.70;19.70;;;6.70;99.90;;;;;;4937301;29;20039;-74
2023/12/27 13:15:22;;;;;;;42.17;19.65;;;6.70;99.90;;;;;;4936205;29;20043;-74
2023/12/27 13:17:48;;;;;;;45.05;20.15;;;6.80;99.90;;;;;;4936316;29;20062;-77
2023/12/27 13:20:15;;;;;;;46.00;19.90;;;6.80;99.90;;;;;;4937289;29;20047;-74
2023/12/27 13:22:41;;;;;;;44.10;21.27;;;6.80;99.90;;;;;;4936069;29;20052;-76
2023/12/27 13:25:09;;;;;;;42.08;20.58;;;6.80;99.90;;;;;;4936310;29;20043;-74
2023/12/27 13:27:35;;;;;;;45.47;21.15;;;6.90;99.90;;;;;;4935970;29;20047;-75
2023/12/27 13:30:01;;;;;;;47.78;20.88;;;6.90;99.90;;;;;;4936206;29;20046;-76
2023/12/27 13:32:27;;;;;;;47.63;21.55;;;7.00;99.90;;;;;;4935261;29;20059;-76
2023/12/27 13:34:52;;;;;;;42.63;19.85;;;7.00;99.90;;;;;;4935845;29;20317;-73
2023/12/27 13:37:18;;;;;;;43.80;21.40;;;7.00;99.90;;;;;;4935538;29;20559;-75
2023/12/27 13:39:44;;;;;;;41.88;20.52;;;7.00;99.90;;;;;;4935442;29;20086;-75
2023/12/27 13:42:10;;;;;;;41.35;20.45;;;7.00;99.90;;;;;;4935356;29;20075;-74
2023/12/27 13:44:36;;;;;;;43.30;19.67;;;7.10;99.90;;;;;;4935334;29;20083;-76
2023/12/27 13:47:02;;;;;;;44.60;20.35;;;7.10;99.90;;;;;;4935384;29;20040;-76
2023/12/27 13:49:28;;;;;;;36.72;18.42;;;7.10;99.90;;;;;;4934960;29;20407;-75
2023/12/27 13:51:54;;;;;;;37.70;17.92;;;7.10;99.90;;;;;;4934888;29;20039;-75
2023/12/27 13:54:19;;;;;;;38.80;16.98;;;7.20;99.90;;;;;;4935435;29;20044;-74
2023/12/27 13:56:45;;;;;;;38.20;16.80;;;7.30;99.90;;;;;;4935078;29;20516;-75
2023/12/27 13:59:11;;;;;;;41.42;19.02;;;7.30;99.90;;;;;;4935031;29;20067;-76
2023/12/27 14:01:39;;;;;;;32.60;17.10;;;7.40;99.90;;;;;;4936149;29;20063;-74
2023/12/27 14:04:09;;;;;;;46.30;16.33;;;7.40;99.90;;;;;;4935048;29;20507;-74
2023/12/27 14:06:38;;;;;;;29.98;15.07;;;7.40;99.90;;;;;;4935935;29;20484;-74
2023/12/27 14:09:14;;;;;;;32.20;15.27;;;7.50;99.90;;;;;;4936467;29;20391;-75
2023/12/27 14:11:41;;;;;;;30.75;14.65;;;7.50;99.90;;;;;;4935072;29;20126;-75
2023/12/27 14:14:06;;;;;;;26.73;14.07;;;7.50;99.90;;;;;;4936368;29;20055;-73
2023/12/27 14:16:32;;;;;;;25.92;13.90;;;7.60;99.90;;;;;;4936230;29;20039;-75
2023/12/27 14:18:58;;;;;;;34.03;14.27;;;7.60;99.90;;;;;;4934721;29;20059;-76
2023/12/27 14:21:24;;;;;;;32.83;13.98;;;7.60;99.90;;;;;;4934758;29;20044;-75
2023/12/27 14:23:50;;;;;;;28.33;14.18;;;7.60;99.90;;;;;;4934990;29;20047;-76
2023/12/27 14:26:16;;;;;;;34.33;14.32;;;7.70;99.90;;;;;;4934421;29;20516;-77
2023/12/27 14:28:42;;;;;;;28.33;13.75;;;7.70;99.90;;;;;;4934982;29;20052;-75
2023/12/27 14:31:13;;;;;;;25.38;12.20;;;7.70;99.90;;;;;;4934777;29;20080;-75
2023/12/27 14:33:39;;;;;;;25.80;12.40;;;7.70;99.90;;;;;;4934785;29;20040;-78
2023/12/27 14:36:05;;;;;;;27.45;10.65;;;7.80;99.90;;;;;;4934763;29;20080;-79
2023/12/27 14:38:31;;;;;;;21.00;10.77;;;7.80;99.90;;;;;;4936339;29;20055;-76
2023/12/27 14:40:56;;;;;;;23.08;11.07;;;7.90;99.90;;;;;;4935265;29;20036;-79
2023/12/27 14:43:22;;;;;;;24.45;11.60;;;7.80;99.90;;;;;;4934768;29;20051;-76
2023/12/27 14:45:48;;;;;;;20.23;11.20;;;7.90;99.90;;;;;;4935867;29;20047;-73
2023/12/27 14:48:13;;;;;;;24.70;11.95;;;7.90;99.90;;;;;;4919252;29;20039;-76
2023/12/27 14:50:39;;;;;;;26.92;11.27;;;7.90;99.90;;;;;;4934737;29;20480;-78
2023/12/27 14:53:05;;;;;;;22.63;10.38;;;7.90;99.90;;;;;;4934468;29;20118;-77
2023/12/27 14:55:31;;;;;;;24.52;10.15;;;8.00;99.90;;;;;;4935998;29;20054;-75
2023/12/27 14:57:56;;;;;;;17.50;9.68;;;8.00;99.90;;;;;;4934380;29;20048;-79
2023/12/27 15:00:22;;;;;;;18.98;9.80;;;8.00;99.90;;;;;;4935777;29;20040;-75
2023/12/27 15:02:47;;;;;;;17.75;9.63;;;8.00;99.90;;;;;;4938346;29;20111;-81
2023/12/27 15:05:13;;;;;;;23.13;10.13;;;8.00;99.90;;;;;;4938293;29;20527;-77
2023/12/27 15:07:39;;;;;;;18.85;9.88;;;8.00;99.90;;;;;;4938082;29;20435;-79
2023/12/27 15:10:07;;;;;;;18.85;8.88;;;8.00;99.90;;;;;;4939556;29;20369;-77
2023/12/27 15:12:33;;;;;;;16.60;8.25;;;8.00;99.90;;;;;;4938265;29;20058;-79
2023/12/27 15:14:59;;;;;;;21.67;9.65;;;8.10;99.90;;;;;;4940327;29;20403;-76
2023/12/27 15:17:25;;;;;;;19.05;8.75;;;8.10;99.90;;;;;;4940686;29;20122;-76
2023/12/27 15:19:51;;;;;;;16.58;8.65;;;8.10;99.90;;;;;;4938776;29;20044;-77
2023/12/27 15:22:17;;;;;;;19.10;7.82;;;8.10;99.90;;;;;;4922411;29;20043;-76
2023/12/27 15:24:42;;;;;;;17.80;8.13;;;8.10;99.90;;;;;;4939146;29;20035;-76
2023/12/27 15:27:09;;;;;;;14.10;8.30;;;8.10;99.90;;;;;;4938316;29;20052;-75
2023/12/27 15:29:38;;;;;;;16.27;8.23;;;8.10;99.90;;;;;;4939676;29;20449;-77
2023/12/27 15:32:05;;;;;;;18.60;8.25;;;8.00;99.90;;;;;;4938166;29;20118;-78
2023/12/27 15:34:30;;;;;;;19.33;9.00;;;8.00;99.90;;;;;;4939332;29;20039;-78
2023/12/27 15:36:56;;;;;;;17.35;8.15;;;8.00;99.90;;;;;;4937656;29;20040;-76
2023/12/27 15:39:23;;;;;;;18.88;7.85;;;8.00;99.90;;;;;;4938163;29;20054;-76
2023/12/27 15:41:48;;;;;;;16.63;8.63;;;8.00;99.90;;;;;;4937856;29;20051;-77
2023/12/27 15:44:14;;;;;;;19.23;8.98;;;8.00;99.90;;;;;;4937629;29;20047;-76
2023/12/27 15:46:40;;;;;;;19.75;8.13;;;8.00;99.90;;;;;;4937577;29;20062;-77
2023/12/27 15:49:06;;;;;;;15.20;7.93;;;8.00;99.90;;;;;;4939038;29;20040;-78
2023/12/27 15:51:34;;;;;;;17.90;7.53;;;8.00;99.90;;;;;;4937522;29;20123;-82
2023/12/27 15:54:00;;;;;;;18.33;7.75;;;8.00;99.90;;;;;;4922010;29;20083;-75
2023/12/27 15:56:30;;;;;;;20.17;7.30;;;8.00;99.90;;;;;;4939038;29;20043;-78
2023/12/27 15:58:58;;;;;;;18.33;7.90;;;8.00;99.90;;;;;;4922142;29;20043;-74
2023/12/27 16:01:29;;;;;;;18.02;8.20;;;8.00;99.90;;;;;;4939038;29;20349;-76
2023/12/27 16:03:57;;;;;;;19.17;7.60;;;8.00;99.90;;;;;;4937755;29;20051;-78
2023/12/27 16:06:28;;;;;;;14.98;6.90;;;8.00;99.90;;;;;;4937587;29;20192;-77
2023/12/27 16:08:54;;;;;;;17.55;7.15;;;8.00;99.90;;;;;;4939259;29;20501;-74
2023/12/27 16:11:20;;;;;;;16.65;7.80;;;8.10;99.90;;;;;;4938954;29;20039;-74
2023/12/27 16:13:47;;;;;;;14.25;7.10;;;8.00;99.90;;;;;;4921313;29;20499;-77
2023/12/27 16:16:13;;;;;;;16.33;7.38;;;8.00;99.90;;;;;;4937531;29;20090;-78
2023/12/27 16:18:40;;;;;;;15.90;7.80;;;8.10;99.90;;;;;;4937318;29;20106;-74
2023/12/27 16:21:11;;;;;;;14.65;6.10;;;8.10;99.90;;;;;;4937266;29;20043;-76
2023/12/27 16:23:37;;;;;;;16.48;6.70;;;8.10;99.90;;;;;;4937169;29;20052;-76
2023/12/27 16:26:03;;;;;;;20.05;7.60;;;8.10;99.90;;;;;;4937156;29;20052;-77
2023/12/27 16:28:29;;;;;;;20.38;7.55;;;8.10;99.90;;;;;;4938978;29;20098;-76
2023/12/27 16:30:58;;;;;;;20.15;7.25;;;8.20;99.90;;;;;;4938082;29;20040;-78
2023/12/27 16:33:25;;;;;;;18.83;7.40;;;8.10;99.90;;;;;;4937362;29;20048;-78
2023/12/27 16:35:57;;;;;;;16.73;7.28;;;8.20;99.90;;;;;;4936844;29;20058;-75
2023/12/27 16:38:26;;;;;;;16.73;6.55;;;8.20;99.90;;;;;;4936668;29;20090;-78
2023/12/27 16:40:53;;;;;;;14.73;7.15;;;8.20;99.90;;;;;;4937522;29;20404;-76